createdAt,value
2018-12-14T00:00:20.581Z,2.51
2018-12-14T00:02:50.228Z,2.57
2018-12-14T00:05:18.931Z,2.60
2018-12-14T00:07:47.803Z,2.65
2018-12-14T00:10:16.410Z,2.64
2018-12-14T00:12:45.017Z,2.58
2018-12-14T00:15:14.024Z,2.44
2018-12-14T00:17:42.592Z,2.56
2018-12-14T00:20:11.180Z,2.59
2018-12-14T00:22:39.766Z,2.53
2018-12-14T00:25:08.930Z,2.59
2018-12-14T00:27:37.596Z,2.60
2018-12-14T00:30:09.972Z,2.48
2018-12-14T00:32:38.592Z,2.45
2018-12-14T00:35:07.190Z,2.35
2018-12-14T00:37:35.804Z,2.21
2018-12-14T00:40:04.887Z,2.27
2018-12-14T00:42:33.598Z,2.32
2018-12-14T00:45:02.364Z,2.36
2018-12-14T00:47:30.958Z,2.40
2018-12-14T00:49:59.631Z,2.34
2018-12-14T00:52:28.327Z,2.30
2018-12-14T00:54:57.028Z,2.11
2018-12-14T00:57:25.746Z,2.21
2018-12-14T00:59:54.423Z,2.18
2018-12-14T01:02:29.034Z,2.11
2018-12-14T01:04:58.241Z,2.13
2018-12-14T01:07:26.899Z,2.17
2018-12-14T01:09:55.634Z,2.20
2018-12-14T01:12:24.238Z,2.32
2018-12-14T01:14:52.847Z,2.25
2018-12-14T01:17:21.478Z,2.22
2018-12-14T01:19:50.130Z,2.25
2018-12-14T01:22:18.853Z,2.20
2018-12-14T01:24:47.451Z,2.23
2018-12-14T01:27:16.069Z,2.27
2018-12-14T01:29:44.757Z,2.32
2018-12-14T01:32:13.321Z,2.29
2018-12-14T01:34:42.008Z,2.29
2018-12-14T01:37:10.700Z,2.28
2018-12-14T01:39:39.389Z,2.30
2018-12-14T01:42:10.064Z,2.20
2018-12-14T01:44:38.723Z,2.14
2018-12-14T01:47:07.345Z,2.09
2018-12-14T01:49:35.972Z,2.18
2018-12-14T01:52:04.987Z,2.06
2018-12-14T01:54:33.619Z,2.11
2018-12-14T01:57:02.380Z,2.13
2018-12-14T01:59:31.055Z,2.06
2018-12-14T02:01:59.682Z,1.81
2018-12-14T02:04:28.370Z,1.68
2018-12-14T02:06:57.008Z,1.76
2018-12-14T02:09:25.589Z,1.71
2018-12-14T02:11:54.221Z,1.74
2018-12-14T02:14:22.826Z,1.72
2018-12-14T02:16:51.574Z,1.91
2018-12-14T02:19:20.237Z,1.90
2018-12-14T02:21:49.017Z,1.92
2018-12-14T02:24:17.624Z,2.03
2018-12-14T02:26:46.186Z,2.05
2018-12-14T02:29:14.771Z,2.05
2018-12-14T02:31:43.358Z,1.96
2018-12-14T02:34:11.922Z,1.96
2018-12-14T02:36:40.602Z,1.98
2018-12-14T02:39:09.294Z,2.06
2018-12-14T02:41:38.037Z,2.03
2018-12-14T02:44:06.622Z,2.08
2018-12-14T02:46:35.265Z,2.10
2018-12-14T02:49:03.850Z,2.03
2018-12-14T02:51:32.432Z,2.05
2018-12-14T02:54:01.159Z,2.03
2018-12-14T02:56:29.739Z,2.11
2018-12-14T02:58:58.676Z,2.15
2018-12-14T03:01:27.461Z,2.17
2018-12-14T03:03:56.095Z,2.17
2018-12-14T03:06:24.795Z,2.19
2018-12-14T03:08:53.413Z,2.11
2018-12-14T03:11:22.109Z,2.08
2018-12-14T03:13:50.844Z,2.11
2018-12-14T03:16:19.495Z,2.04
2018-12-14T03:18:48.144Z,2.11
2018-12-14T03:21:17.221Z,2.10
2018-12-14T03:23:45.858Z,2.04
2018-12-14T03:26:14.550Z,1.99
2018-12-14T03:28:43.123Z,2.05
2018-12-14T03:31:18.593Z,2.09
2018-12-14T03:33:47.361Z,2.05
2018-12-14T03:36:16.054Z,2.10
2018-12-14T03:38:44.683Z,1.97
2018-12-14T03:41:13.430Z,2.07
2018-12-14T03:43:41.991Z,1.91
2018-12-14T03:46:10.625Z,1.77
2018-12-14T03:48:39.199Z,1.78
2018-12-14T03:51:08.054Z,1.79
2018-12-14T03:53:36.676Z,1.76
2018-12-14T03:56:05.373Z,1.69
2018-12-14T03:58:33.990Z,1.73
2018-12-14T04:01:02.646Z,1.81
2018-12-14T04:03:31.274Z,1.78
2018-12-14T04:06:00.079Z,1.82
2018-12-14T04:08:28.701Z,1.68
2018-12-14T04:10:57.427Z,1.68
2018-12-14T04:13:26.072Z,1.66
2018-12-14T04:15:54.781Z,1.59
2018-12-14T04:18:23.434Z,1.47
2018-12-14T04:20:53.027Z,1.53
2018-12-14T04:23:21.726Z,1.47
2018-12-14T04:25:50.366Z,1.44
2018-12-14T04:28:19.098Z,1.30
2018-12-14T04:30:47.741Z,1.30
2018-12-14T04:33:16.873Z,1.24
2018-12-14T04:35:46.324Z,1.13
2018-12-14T04:38:15.930Z,1.21
2018-12-14T04:40:45.940Z,1.14
2018-12-14T04:43:14.561Z,1.11
2018-12-14T04:45:43.284Z,1.03
2018-12-14T04:48:12.223Z,1.01
2018-12-14T04:50:41.117Z,1.03
2018-12-14T04:53:09.784Z,1.02
2018-12-14T04:55:38.443Z,0.98
2018-12-14T04:58:07.123Z,1.05
2018-12-14T05:00:35.789Z,0.93
2018-12-14T05:03:05.127Z,0.97
2018-12-14T05:05:33.756Z,0.94
2018-12-14T05:08:02.542Z,0.94
2018-12-14T05:10:31.219Z,0.92
2018-12-14T05:13:00.191Z,0.91
2018-12-14T05:15:28.865Z,0.88
2018-12-14T05:17:57.807Z,0.87
2018-12-14T05:20:26.661Z,0.90
2018-12-14T05:22:55.579Z,0.86
2018-12-14T05:25:24.387Z,0.89
2018-12-14T05:27:52.980Z,0.83
2018-12-14T05:30:21.864Z,0.80
2018-12-14T05:32:50.535Z,0.79
2018-12-14T05:35:19.130Z,0.79
2018-12-14T05:37:47.800Z,0.79
2018-12-14T05:40:17.234Z,0.70
2018-12-14T05:42:46.128Z,0.76
2018-12-14T05:45:15.520Z,0.73
2018-12-14T05:47:45.236Z,0.74
2018-12-14T05:50:14.107Z,0.81
2018-12-14T05:52:42.755Z,0.77
2018-12-14T05:55:11.473Z,0.74
2018-12-14T05:57:40.136Z,0.79
2018-12-14T06:00:13.053Z,0.88
2018-12-14T06:02:41.701Z,0.82
2018-12-14T06:05:10.334Z,0.81
2018-12-14T06:07:38.959Z,0.88
2018-12-14T06:10:08.090Z,0.86
2018-12-14T06:12:36.778Z,0.87
2018-12-14T06:15:06.140Z,0.88
2018-12-14T06:17:34.851Z,0.94
2018-12-14T06:20:03.975Z,0.91
2018-12-14T06:22:32.626Z,1.00
2018-12-14T06:25:01.307Z,1.01
2018-12-14T06:27:30.022Z,1.04
2018-12-14T06:29:59.052Z,1.01
2018-12-14T06:32:27.686Z,1.01
2018-12-14T06:34:56.613Z,1.00
2018-12-14T06:37:25.603Z,0.91
2018-12-14T06:39:54.500Z,0.95
2018-12-14T06:42:23.400Z,0.86
2018-12-14T06:44:52.132Z,0.95
2018-12-14T06:47:20.751Z,1.05
2018-12-14T06:49:49.611Z,1.07
2018-12-14T06:52:18.233Z,1.16
2018-12-14T06:54:46.778Z,1.14
2018-12-14T06:57:15.426Z,1.10
2018-12-14T06:59:44.047Z,1.12
2018-12-14T07:02:12.877Z,1.11
2018-12-14T07:04:41.515Z,0.98
2018-12-14T07:07:10.279Z,0.93
2018-12-14T07:09:38.895Z,1.01
2018-12-14T07:12:07.641Z,1.03
2018-12-14T07:14:36.451Z,1.09
2018-12-14T07:17:05.225Z,1.19
2018-12-14T07:19:33.876Z,1.22
2018-12-14T07:22:02.507Z,1.21
2018-12-14T07:24:31.235Z,1.21
2018-12-14T07:26:59.951Z,1.18
2018-12-14T07:29:28.624Z,1.27
2018-12-14T07:31:57.352Z,1.16
2018-12-14T07:34:26.659Z,1.10
2018-12-14T07:36:55.919Z,1.02
2018-12-14T07:39:24.734Z,1.04
2018-12-14T07:41:53.409Z,1.14
2018-12-14T07:44:22.083Z,1.11
2018-12-14T07:46:50.759Z,1.09
2018-12-14T07:49:19.354Z,1.19
2018-12-14T07:51:48.017Z,1.20
2018-12-14T07:54:16.795Z,1.13
2018-12-14T07:56:45.417Z,1.27
2018-12-14T07:59:14.619Z,1.36
2018-12-14T08:01:43.301Z,1.34
2018-12-14T08:04:12.255Z,1.50
2018-12-14T08:06:40.965Z,1.54
2018-12-14T08:09:09.681Z,1.58
2018-12-14T08:11:38.341Z,1.65
2018-12-14T08:14:06.988Z,1.54
2018-12-14T08:16:35.595Z,1.39
2018-12-14T08:19:04.223Z,1.35
2018-12-14T08:21:33.384Z,1.44
2018-12-14T08:24:02.081Z,1.42
2018-12-14T08:26:30.720Z,1.40
2018-12-14T08:28:59.336Z,1.59
2018-12-14T08:31:28.296Z,1.66
2018-12-14T08:33:57.020Z,1.65
2018-12-14T08:36:25.674Z,1.60
2018-12-14T08:38:54.295Z,1.52
2018-12-14T08:41:22.941Z,1.60
2018-12-14T08:43:51.616Z,1.55
2018-12-14T08:46:20.427Z,1.66
2018-12-14T08:48:49.278Z,1.71
2018-12-14T08:51:17.980Z,1.85
2018-12-14T08:53:46.956Z,1.93
2018-12-14T08:56:15.652Z,1.96
2018-12-14T08:58:44.328Z,2.05
2018-12-14T09:01:13.009Z,2.12
2018-12-14T09:03:41.693Z,2.34
2018-12-14T09:06:10.305Z,2.32
2018-12-14T09:08:38.968Z,2.49
2018-12-14T09:11:07.601Z,2.58
2018-12-14T09:13:36.266Z,2.57
2018-12-14T09:16:04.928Z,2.63
2018-12-14T09:18:33.563Z,2.72
2018-12-14T09:21:02.250Z,2.82
2018-12-14T09:23:31.247Z,2.83
2018-12-14T09:26:00.840Z,2.77
2018-12-14T09:28:29.555Z,2.85
2018-12-14T09:30:59.262Z,2.78
2018-12-14T09:33:27.854Z,2.77
2018-12-14T09:35:56.890Z,2.79
2018-12-14T09:38:25.528Z,2.81
2018-12-14T09:40:55.380Z,2.63
2018-12-14T09:43:24.068Z,2.72
2018-12-14T09:45:52.772Z,2.81
2018-12-14T09:48:21.490Z,2.81
2018-12-14T09:50:50.183Z,2.91
2018-12-14T09:53:18.881Z,2.96
2018-12-14T09:55:47.478Z,2.94
2018-12-14T09:58:16.108Z,2.86
2018-12-14T10:00:44.799Z,2.94
2018-12-14T10:03:13.501Z,2.96
2018-12-14T10:05:42.131Z,2.90
2018-12-14T10:08:10.775Z,2.88
2018-12-14T10:10:39.626Z,2.78
2018-12-14T10:13:08.459Z,2.87
2018-12-14T10:15:37.308Z,2.81
2018-12-14T10:18:05.991Z,2.76
2018-12-14T10:20:34.631Z,2.73
2018-12-14T10:23:03.473Z,2.83
2018-12-14T10:25:32.157Z,2.90
2018-12-14T10:28:01.347Z,2.99
2018-12-14T10:30:30.227Z,2.96
2018-12-14T10:32:58.882Z,2.98
2018-12-14T10:35:27.491Z,3.11
2018-12-14T10:37:56.267Z,3.14
2018-12-14T10:40:24.981Z,3.15
2018-12-14T10:42:53.717Z,3.09
2018-12-14T10:45:23.839Z,2.95
2018-12-14T10:47:52.456Z,3.06
2018-12-14T10:50:22.711Z,3.18
2018-12-14T10:52:51.453Z,3.01
2018-12-14T10:55:20.298Z,2.93
2018-12-14T10:57:49.594Z,2.89
2018-12-14T11:00:24.005Z,2.88
2018-12-14T11:02:54.735Z,2.95
2018-12-14T11:05:23.528Z,2.91
2018-12-14T11:07:52.186Z,3.05
2018-12-14T11:10:20.830Z,3.11
2018-12-14T11:12:50.558Z,3.17
2018-12-14T11:15:19.397Z,3.17
2018-12-14T11:17:48.143Z,3.00
2018-12-14T11:20:16.830Z,2.98
2018-12-14T11:22:45.555Z,3.08
2018-12-14T11:25:14.210Z,3.11
2018-12-14T11:27:42.889Z,3.01
2018-12-14T11:30:12.258Z,3.09
2018-12-14T11:32:41.049Z,3.08
2018-12-14T11:35:09.821Z,3.07
2018-12-14T11:37:39.038Z,3.11
2018-12-14T11:40:09.990Z,3.01
2018-12-14T11:42:39.992Z,3.00
2018-12-14T11:45:09.877Z,3.01
2018-12-14T11:47:39.319Z,3.03
2018-12-14T11:50:13.347Z,3.01
2018-12-14T11:52:42.844Z,3.03
2018-12-14T11:55:11.712Z,2.98
2018-12-14T11:57:40.346Z,2.99
2018-12-14T12:00:14.183Z,3.07
2018-12-14T12:02:43.493Z,3.17
2018-12-14T12:05:12.349Z,3.19
2018-12-14T12:07:42.309Z,3.17
2018-12-14T12:10:11.674Z,3.13
2018-12-14T12:12:40.582Z,3.22
2018-12-14T12:15:09.700Z,3.16
2018-12-14T12:17:40.170Z,3.22
2018-12-14T12:20:09.608Z,3.23
2018-12-14T12:22:38.178Z,3.22
2018-12-14T12:25:07.384Z,3.14
2018-12-14T12:27:36.115Z,3.30
2018-12-14T12:30:11.238Z,3.23
2018-12-14T12:32:39.885Z,3.24
2018-12-14T12:35:10.085Z,3.27
2018-12-14T12:37:38.719Z,3.30
2018-12-14T12:40:07.500Z,3.36
2018-12-14T12:42:36.160Z,3.30
2018-12-14T12:45:05.234Z,3.34
2018-12-14T12:47:34.054Z,3.31
2018-12-14T12:50:02.766Z,3.29
2018-12-14T12:52:31.429Z,3.30
2018-12-14T12:55:00.116Z,3.24
2018-12-14T12:57:28.848Z,3.31
2018-12-14T12:59:57.438Z,3.31
2018-12-14T13:02:26.145Z,3.35
2018-12-14T13:04:54.972Z,3.27
2018-12-14T13:07:23.554Z,3.22
2018-12-14T13:09:52.183Z,3.23
2018-12-14T13:12:20.804Z,3.18
2018-12-14T13:14:49.400Z,3.23
2018-12-14T13:17:18.063Z,3.08
2018-12-14T13:19:46.699Z,3.14
2018-12-14T13:22:15.403Z,3.02
2018-12-14T13:24:43.975Z,3.04
2018-12-14T13:27:12.609Z,2.99
2018-12-14T13:29:41.196Z,2.92
2018-12-14T13:32:09.846Z,2.91
2018-12-14T13:34:38.434Z,2.93
2018-12-14T13:37:07.172Z,2.94
2018-12-14T13:39:35.876Z,2.93
2018-12-14T13:42:04.550Z,2.94
2018-12-14T13:44:33.465Z,2.82
2018-12-14T13:47:02.407Z,2.97
2018-12-14T13:49:31.248Z,2.85
2018-12-14T13:52:00.236Z,2.84
2018-12-14T13:54:29.325Z,2.92
2018-12-14T13:56:58.167Z,2.93
2018-12-14T13:59:26.847Z,2.90
2018-12-14T14:01:57.073Z,2.88
2018-12-14T14:04:25.780Z,2.92
2018-12-14T14:06:54.502Z,2.86
2018-12-14T14:09:24.018Z,2.79
2018-12-14T14:11:52.680Z,2.81
2018-12-14T14:14:21.277Z,2.77
2018-12-14T14:16:50.882Z,2.82
2018-12-14T14:19:19.500Z,2.80
2018-12-14T14:21:48.589Z,2.75
2018-12-14T14:24:17.184Z,2.83
2018-12-14T14:26:45.802Z,2.86
2018-12-14T14:29:14.445Z,2.66
2018-12-14T14:31:43.061Z,2.72
2018-12-14T14:36:45.733Z,2.76
2018-12-14T14:39:14.621Z,2.74
2018-12-14T14:41:43.396Z,2.78
2018-12-14T14:44:12.797Z,2.74
2018-12-14T14:46:41.418Z,2.71
2018-12-14T14:49:10.956Z,2.74
2018-12-14T14:51:40.071Z,2.82
2018-12-14T14:54:08.875Z,2.74
2018-12-14T14:56:37.825Z,2.80
2018-12-14T14:59:06.513Z,2.77
2018-12-14T15:01:35.263Z,2.79
2018-12-14T15:04:04.092Z,2.80
2018-12-14T15:06:32.705Z,2.87
2018-12-14T15:09:01.673Z,2.90
2018-12-14T15:11:30.263Z,2.85
2018-12-14T15:13:58.961Z,2.89
2018-12-14T15:16:27.578Z,2.88
2018-12-14T15:18:56.332Z,2.84
2018-12-14T15:21:25.062Z,2.86
2018-12-14T15:23:53.714Z,2.89
2018-12-14T15:26:22.317Z,2.81
2018-12-14T15:28:50.941Z,2.74
2018-12-14T15:31:19.647Z,2.84
2018-12-14T15:33:48.958Z,2.82
2018-12-14T15:36:17.735Z,2.80
2018-12-14T15:38:46.447Z,2.84
2018-12-14T15:41:15.066Z,2.78
2018-12-14T15:43:43.702Z,2.70
2018-12-14T15:46:12.300Z,2.71
2018-12-14T15:48:40.963Z,2.74
2018-12-14T15:51:09.630Z,2.77
2018-12-14T15:53:38.276Z,2.78
2018-12-14T15:56:07.392Z,2.83
2018-12-14T15:58:36.182Z,2.86
2018-12-14T16:01:04.773Z,2.81
2018-12-14T16:03:33.382Z,2.87
2018-12-14T16:06:02.212Z,2.80
2018-12-14T16:08:30.874Z,2.86
2018-12-14T16:10:59.523Z,2.78
2018-12-14T16:13:28.230Z,2.81
2018-12-14T16:15:57.225Z,2.87
2018-12-14T16:18:25.866Z,2.85
2018-12-14T16:20:54.579Z,2.84
2018-12-14T16:23:23.247Z,2.76
2018-12-14T16:25:51.987Z,2.69
2018-12-14T16:28:21.229Z,2.81
2018-12-14T16:30:50.474Z,2.77
2018-12-14T16:33:19.354Z,2.59
2018-12-14T16:35:49.085Z,2.58
2018-12-14T16:38:17.692Z,2.54
2018-12-14T16:40:46.814Z,2.53
2018-12-14T16:43:15.466Z,2.56
2018-12-14T16:45:44.117Z,2.54
2018-12-14T16:48:12.850Z,2.54
2018-12-14T16:50:41.510Z,2.63
2018-12-14T16:53:10.179Z,2.48
2018-12-14T16:55:38.838Z,2.61
2018-12-14T16:58:07.564Z,2.62
2018-12-14T17:00:36.321Z,2.64
2018-12-14T17:03:05.043Z,2.60
2018-12-14T17:05:33.738Z,2.58
2018-12-14T17:08:02.405Z,2.56
2018-12-14T17:10:31.172Z,2.59
2018-12-14T17:12:59.924Z,2.65
2018-12-14T17:15:33.218Z,2.64
2018-12-14T17:17:59.781Z,2.58
2018-12-14T17:20:28.471Z,2.61
2018-12-14T17:22:57.452Z,2.60
2018-12-14T17:25:26.184Z,2.56
2018-12-14T17:27:54.896Z,2.54
2018-12-14T17:30:23.566Z,2.60
2018-12-14T17:32:52.638Z,2.60
2018-12-14T17:35:21.412Z,2.59
2018-12-14T17:37:50.039Z,2.61
2018-12-14T17:40:18.718Z,2.50
2018-12-14T17:42:48.697Z,2.59
2018-12-14T17:45:17.298Z,2.45
2018-12-14T17:47:45.903Z,2.40
2018-12-14T17:50:14.536Z,2.39
2018-12-14T17:52:43.182Z,2.34
2018-12-14T17:55:11.986Z,2.36
2018-12-14T17:57:40.593Z,2.26
2018-12-14T18:00:11.153Z,2.39
2018-12-14T18:02:39.987Z,2.45
2018-12-14T18:05:13.612Z,2.44
2018-12-14T18:07:42.374Z,2.44
2018-12-14T18:10:11.307Z,2.40
2018-12-14T18:12:40.331Z,2.48
2018-12-14T18:15:08.988Z,2.47
2018-12-14T18:17:37.820Z,2.34
2018-12-14T18:20:07.295Z,2.36
2018-12-14T18:22:36.691Z,2.35
2018-12-14T18:25:06.128Z,2.26
2018-12-14T18:27:35.053Z,2.28
2018-12-14T18:30:09.762Z,2.14
2018-12-14T18:32:38.409Z,2.12
2018-12-14T18:35:08.151Z,2.22
2018-12-14T18:37:37.491Z,2.24
2018-12-14T18:40:08.228Z,2.34
2018-12-14T18:42:36.913Z,2.40
2018-12-14T18:45:06.829Z,2.22
2018-12-14T18:47:35.690Z,2.31
2018-12-14T18:50:04.606Z,2.33
2018-12-14T18:52:33.345Z,2.31
2018-12-14T18:55:02.244Z,2.32
2018-12-14T18:57:30.878Z,2.47
2018-12-14T18:59:59.785Z,2.60
2018-12-14T19:02:28.360Z,2.61
2018-12-14T19:04:57.046Z,2.67
2018-12-14T19:07:26.325Z,2.74
2018-12-14T19:09:55.002Z,2.76
2018-12-14T19:12:24.865Z,2.62
2018-12-14T19:14:53.797Z,2.67
2018-12-14T19:17:22.384Z,2.70
2018-12-14T19:19:51.000Z,2.63
2018-12-14T19:22:19.646Z,2.64
2018-12-14T19:24:48.711Z,2.59
2018-12-14T19:27:17.528Z,2.53
2018-12-14T19:29:46.173Z,2.44
2018-12-14T19:32:14.809Z,2.43
2018-12-14T19:34:43.436Z,2.43
2018-12-14T19:37:13.148Z,2.45
2018-12-14T19:39:41.802Z,2.39
2018-12-14T19:42:10.377Z,2.54
2018-12-14T19:44:39.370Z,2.58
2018-12-14T19:47:09.060Z,2.59
2018-12-14T19:49:37.840Z,2.56
2018-12-14T19:52:06.803Z,2.46
2018-12-14T19:54:35.752Z,2.52
2018-12-14T19:57:04.390Z,2.56
2018-12-14T19:59:33.018Z,2.39
2018-12-14T20:02:01.661Z,2.38
2018-12-14T20:04:30.325Z,2.28
2018-12-14T20:06:58.981Z,2.16
2018-12-14T20:09:27.607Z,2.23
2018-12-14T20:11:56.557Z,2.34
2018-12-14T20:14:25.162Z,2.32
2018-12-14T20:16:53.806Z,2.33
2018-12-14T20:19:22.457Z,2.29
2018-12-14T20:21:51.685Z,2.30
2018-12-14T20:24:21.391Z,2.29
2018-12-14T20:26:50.031Z,2.24
2018-12-14T20:29:18.647Z,2.24
2018-12-14T20:31:48.715Z,2.23
2018-12-14T20:34:17.456Z,2.18
2018-12-14T20:36:46.119Z,2.19
2018-12-14T20:39:14.783Z,2.18
2018-12-14T20:41:43.448Z,2.27
2018-12-14T20:44:12.026Z,2.31
2018-12-14T20:46:40.649Z,2.32
2018-12-14T20:49:09.262Z,2.35
2018-12-14T20:51:37.944Z,2.32
2018-12-14T20:54:06.659Z,2.39
2018-12-14T20:56:35.315Z,2.44
2018-12-14T20:59:03.904Z,2.46
2018-12-14T21:01:32.604Z,2.58
2018-12-14T21:04:01.244Z,2.64
2018-12-14T21:06:29.841Z,2.66
2018-12-14T21:08:58.396Z,2.61
2018-12-14T21:11:27.138Z,2.67
2018-12-14T21:13:55.817Z,2.74
2018-12-14T21:16:26.155Z,2.66
2018-12-14T21:18:55.101Z,2.76
2018-12-14T21:21:23.783Z,2.69
2018-12-14T21:23:52.362Z,2.51
2018-12-14T21:26:21.014Z,2.49
2018-12-14T21:28:49.761Z,2.46
2018-12-14T21:31:18.370Z,2.38
2018-12-14T21:33:47.061Z,2.40
2018-12-14T21:36:15.862Z,2.39
2018-12-14T21:38:44.442Z,2.49
2018-12-14T21:41:13.084Z,2.53
2018-12-14T21:43:41.722Z,2.55
2018-12-14T21:46:10.325Z,2.66
2018-12-14T21:48:39.006Z,2.67
2018-12-14T21:51:07.765Z,2.69
2018-12-14T21:53:36.417Z,2.66
2018-12-14T21:56:05.072Z,2.65
2018-12-14T21:58:33.692Z,2.73
2018-12-14T22:01:02.370Z,2.71
2018-12-14T22:03:30.988Z,2.71
2018-12-14T22:05:59.678Z,2.69
2018-12-14T22:08:28.330Z,2.72
2018-12-14T22:10:56.975Z,2.67
2018-12-14T22:13:25.736Z,2.67
2018-12-14T22:15:54.385Z,2.77
2018-12-14T22:18:22.964Z,2.70
2018-12-14T22:20:51.960Z,2.80
2018-12-14T22:23:20.826Z,2.81
2018-12-14T22:25:49.425Z,2.81
2018-12-14T22:28:18.026Z,2.77
2018-12-14T22:30:46.723Z,2.69
2018-12-14T22:33:18.243Z,2.57
2018-12-14T22:35:46.877Z,2.64
2018-12-14T22:38:15.496Z,2.62
2018-12-14T22:40:44.582Z,2.62
2018-12-14T22:43:13.164Z,2.64
2018-12-14T22:45:41.793Z,2.57
2018-12-14T22:48:10.435Z,2.68
2018-12-14T22:50:39.052Z,2.66
2018-12-14T22:53:07.670Z,2.57
2018-12-14T22:55:36.389Z,2.54
2018-12-14T22:58:04.985Z,2.53
2018-12-14T23:00:35.654Z,2.47
2018-12-14T23:03:05.105Z,2.57
2018-12-14T23:05:33.730Z,2.64
2018-12-14T23:08:02.297Z,2.70
2018-12-14T23:10:31.042Z,2.76
2018-12-14T23:12:59.685Z,2.80
2018-12-14T23:15:28.280Z,2.76
2018-12-14T23:17:57.162Z,2.74
2018-12-14T23:20:25.846Z,2.81
2018-12-14T23:22:54.533Z,2.75
2018-12-14T23:25:23.252Z,2.72
2018-12-14T23:27:51.954Z,2.82
2018-12-14T23:30:20.688Z,2.84
2018-12-14T23:32:49.302Z,2.86
2018-12-14T23:35:18.807Z,2.86
2018-12-14T23:37:47.453Z,2.86
2018-12-14T23:40:16.073Z,2.85
2018-12-14T23:42:44.721Z,2.92
2018-12-14T23:45:13.383Z,2.97
2018-12-14T23:47:42.104Z,2.85
2018-12-14T23:50:10.764Z,2.91
2018-12-14T23:52:39.393Z,2.90
2018-12-14T23:55:08.036Z,2.91
2018-12-14T23:57:36.625Z,2.90
